createdAt,value
2016-09-25T00:00:09.366Z,13.44
2016-09-25T00:01:09.376Z,13.46
2016-09-25T00:02:09.396Z,13.49
2016-09-25T00:03:09.423Z,13.44
2016-09-25T00:04:09.444Z,13.39
2016-09-25T00:05:09.462Z,13.41
2016-09-25T00:06:09.469Z,13.41
2016-09-25T00:07:09.486Z,13.41
2016-09-25T00:08:09.506Z,13.41
2016-09-25T00:09:09.538Z,13.44
2016-09-25T00:10:09.536Z,13.42
2016-09-25T00:11:09.564Z,13.46
2016-09-25T00:12:09.587Z,13.39
2016-09-25T00:13:09.609Z,13.35
2016-09-25T00:14:09.627Z,13.28
2016-09-25T00:15:09.633Z,13.3
2016-09-25T00:16:09.667Z,13.31
2016-09-25T00:17:09.673Z,13.35
2016-09-25T00:18:09.699Z,13.27
2016-09-25T00:19:09.713Z,13.27
2016-09-25T00:20:09.738Z,13.28
2016-09-25T00:21:09.748Z,13.35
2016-09-25T00:22:09.766Z,13.28
2016-09-25T00:23:09.785Z,13.25
2016-09-25T00:24:09.812Z,13.28
2016-09-25T00:25:09.835Z,13.23
2016-09-25T00:26:09.848Z,13.12
2016-09-25T00:27:09.859Z,13.3
2016-09-25T00:28:09.881Z,13.27
2016-09-25T00:29:09.902Z,13.18
2016-09-25T00:30:09.923Z,13.23
2016-09-25T00:31:09.944Z,13.23
2016-09-25T00:32:09.950Z,13.11
2016-09-25T00:33:09.985Z,13.12
2016-09-25T00:34:09.991Z,13.12
2016-09-25T00:35:10.018Z,13.11
2016-09-25T00:36:10.041Z,13.09
2016-09-25T00:37:10.041Z,13.08
2016-09-25T00:38:10.074Z,13.11
2016-09-25T00:39:10.083Z,13.13
2016-09-25T00:40:10.099Z,13.08
2016-09-25T00:41:10.112Z,13.05
2016-09-25T00:42:10.145Z,13.05
2016-09-25T00:43:10.174Z,13.05
2016-09-25T00:44:10.189Z,13.08
2016-09-25T00:45:10.187Z,13
2016-09-25T00:46:10.214Z,13.12
2016-09-25T00:47:10.224Z,13.08
2016-09-25T00:48:10.232Z,13.09
2016-09-25T00:49:10.268Z,13.09
2016-09-25T00:50:10.280Z,13.12
2016-09-25T00:51:10.308Z,13.03
2016-09-25T00:52:10.331Z,13.12
2016-09-25T00:53:10.337Z,13.12
2016-09-25T00:54:10.360Z,13.11
2016-09-25T00:55:10.385Z,13.12
2016-09-25T00:56:10.397Z,13.11
2016-09-25T00:57:10.417Z,13.12
2016-09-25T00:58:10.440Z,13.09
2016-09-25T00:59:10.443Z,13.11
2016-09-25T01:00:10.463Z,13.11
2016-09-25T01:01:10.494Z,13.13
2016-09-25T01:02:10.498Z,13.09
2016-09-25T01:03:10.532Z,13.11
2016-09-25T01:04:10.542Z,13.08
2016-09-25T01:05:10.561Z,13.16
2016-09-25T01:06:10.575Z,13.15
2016-09-25T01:07:10.587Z,13.15
2016-09-25T01:08:10.604Z,13.12
2016-09-25T01:09:10.642Z,13.13
2016-09-25T01:10:10.653Z,13.11
2016-09-25T01:11:10.683Z,13.15
2016-09-25T01:12:10.704Z,13.13
2016-09-25T01:13:10.729Z,13.2
2016-09-25T01:14:10.731Z,13.15
2016-09-25T01:15:10.741Z,13.19
2016-09-25T01:16:10.770Z,13.28
2016-09-25T01:17:10.804Z,13.27
2016-09-25T01:18:10.805Z,13.18
2016-09-25T01:19:10.821Z,13.22
2016-09-25T01:20:10.842Z,13.2
2016-09-25T01:21:10.862Z,13.27
2016-09-25T01:22:10.860Z,13.25
2016-09-25T01:23:10.883Z,13.28
2016-09-25T01:24:10.917Z,13.2
2016-09-25T01:25:10.934Z,13.2
2016-09-25T01:26:10.941Z,13.22
2016-09-25T01:27:10.976Z,13.23
2016-09-25T01:28:10.983Z,13.09
2016-09-25T01:29:10.999Z,13.13
2016-09-25T01:30:11.019Z,13.12
2016-09-25T01:31:11.048Z,13.13
2016-09-25T01:32:11.069Z,13.11
2016-09-25T01:33:11.069Z,13.04
2016-09-25T01:34:11.110Z,13.05
2016-09-25T01:35:11.113Z,13.01
2016-09-25T01:36:11.135Z,13.04
2016-09-25T01:37:11.155Z,13
2016-09-25T01:38:11.167Z,13
2016-09-25T01:39:11.200Z,13
2016-09-25T01:40:11.204Z,12.97
2016-09-25T01:41:11.233Z,12.91
2016-09-25T01:42:11.237Z,12.98
2016-09-25T01:43:11.268Z,12.98
2016-09-25T01:44:11.278Z,13.01
2016-09-25T01:45:11.289Z,12.95
2016-09-25T01:46:11.344Z,12.94
2016-09-25T01:47:11.335Z,12.91
2016-09-25T01:48:11.355Z,12.93
2016-09-25T01:49:11.368Z,12.93
2016-09-25T01:50:11.393Z,12.95
2016-09-25T01:51:11.411Z,12.91
2016-09-25T01:52:11.421Z,12.86
2016-09-25T01:53:11.456Z,12.94
2016-09-25T01:54:11.472Z,13.01
2016-09-25T01:55:11.486Z,12.9
2016-09-25T01:56:11.496Z,12.87
2016-09-25T01:57:11.518Z,12.86
2016-09-25T01:58:11.538Z,12.8
2016-09-25T01:59:11.557Z,12.93
2016-09-25T02:00:11.574Z,12.87
2016-09-25T02:01:11.597Z,12.86
2016-09-25T02:02:11.610Z,12.87
2016-09-25T02:03:11.642Z,12.9
2016-09-25T02:04:11.642Z,12.82
2016-09-25T02:05:11.677Z,12.76
2016-09-25T02:06:11.692Z,12.76
2016-09-25T02:07:11.704Z,12.75
2016-09-25T02:08:11.725Z,12.78
2016-09-25T02:09:11.741Z,12.82
2016-09-25T02:10:11.752Z,12.76
2016-09-25T02:11:11.782Z,12.91
2016-09-25T02:12:11.806Z,12.79
2016-09-25T02:13:11.821Z,12.85
2016-09-25T02:14:11.833Z,12.75
2016-09-25T02:15:11.847Z,12.78
2016-09-25T02:16:11.871Z,12.78
2016-09-25T02:17:11.893Z,12.78
2016-09-25T02:18:11.905Z,12.65
2016-09-25T02:19:11.923Z,12.76
2016-09-25T02:20:11.952Z,12.79
2016-09-25T02:21:11.967Z,12.8
2016-09-25T02:22:11.973Z,12.78
2016-09-25T02:23:11.987Z,12.8
2016-09-25T02:24:12.023Z,12.76
2016-09-25T02:25:12.038Z,12.76
2016-09-25T02:26:12.049Z,12.79
2016-09-25T02:27:12.071Z,12.86
2016-09-25T02:28:12.098Z,12.94
2016-09-25T02:29:12.123Z,12.91
2016-09-25T02:30:12.128Z,13.05
2016-09-25T02:31:12.149Z,12.94
2016-09-25T02:32:12.177Z,13
2016-09-25T02:33:12.176Z,13
2016-09-25T02:34:12.200Z,13.09
2016-09-25T02:35:12.214Z,13.12
2016-09-25T02:36:12.245Z,13.03
2016-09-25T02:37:12.265Z,13
2016-09-25T02:38:12.279Z,13.04
2016-09-25T02:39:12.310Z,13
2016-09-25T02:40:12.300Z,13.04
2016-09-25T02:41:12.327Z,13.05
2016-09-25T02:42:12.357Z,13.01
2016-09-25T02:43:12.370Z,13.11
2016-09-25T02:44:12.382Z,13.12
2016-09-25T02:45:12.396Z,13.09
2016-09-25T02:46:12.407Z,13.18
2016-09-25T02:47:12.437Z,13.16
2016-09-25T02:48:12.460Z,13.11
2016-09-25T02:49:12.480Z,13.12
2016-09-25T02:50:12.493Z,13.25
2016-09-25T02:51:12.514Z,13.19
2016-09-25T02:52:12.537Z,13.25
2016-09-25T02:53:12.540Z,13.15
2016-09-25T02:54:12.570Z,13.15
2016-09-25T02:55:12.585Z,13.16
2016-09-25T02:56:12.604Z,13.16
2016-09-25T02:57:12.629Z,13.13
2016-09-25T02:58:12.646Z,13.2
2016-09-25T02:59:12.663Z,13.25
2016-09-25T03:00:12.687Z,13.25
2016-09-25T03:01:12.711Z,13.12
2016-09-25T03:02:12.717Z,13.16
2016-09-25T03:03:12.745Z,13.2
2016-09-25T03:04:12.761Z,13.18
2016-09-25T03:05:12.764Z,13.23
2016-09-25T03:06:12.791Z,13.12
2016-09-25T03:07:12.813Z,13.25
2016-09-25T03:08:12.833Z,13.19
2016-09-25T03:09:12.855Z,13.2
2016-09-25T03:10:12.862Z,13.16
2016-09-25T03:11:12.888Z,13.16
2016-09-25T03:12:12.914Z,13.16
2016-09-25T03:13:12.928Z,13.19
2016-09-25T03:14:12.936Z,13.18
2016-09-25T03:15:12.950Z,13.33
2016-09-25T03:16:12.985Z,13.38
2016-09-25T03:17:12.989Z,13.27
2016-09-25T03:18:13.015Z,13.25
2016-09-25T03:19:13.037Z,13.28
2016-09-25T03:20:13.050Z,13.33
2016-09-25T03:21:13.066Z,13.31
2016-09-25T03:22:13.074Z,13.31
2016-09-25T03:23:13.106Z,13.28
2016-09-25T03:24:13.125Z,13.16
2016-09-25T03:25:13.146Z,13.27
2016-09-25T03:26:13.157Z,13.28
2016-09-25T03:27:13.190Z,13.27
2016-09-25T03:28:13.195Z,13.3
2016-09-25T03:29:13.214Z,13.27
2016-09-25T03:30:13.231Z,13.28
2016-09-25T03:31:13.267Z,13.25
2016-09-25T03:32:13.278Z,13.25
2016-09-25T03:33:13.296Z,13.25
2016-09-25T03:34:13.316Z,13.27
2016-09-25T03:35:13.331Z,13.13
2016-09-25T03:36:13.362Z,13.19
2016-09-25T03:37:13.368Z,13.18
2016-09-25T03:38:13.397Z,13.22
2016-09-25T03:39:13.406Z,13.16
2016-09-25T03:40:13.427Z,13.22
2016-09-25T03:41:13.442Z,13.28
2016-09-25T03:42:13.461Z,13.13
2016-09-25T03:43:13.478Z,13.3
2016-09-25T03:44:13.490Z,13.22
2016-09-25T03:45:13.507Z,13.2
2016-09-25T03:46:13.546Z,13.27
2016-09-25T03:47:13.557Z,13.28
2016-09-25T03:48:13.571Z,13.23
2016-09-25T03:49:13.591Z,13.33
2016-09-25T03:50:13.592Z,13.27
2016-09-25T03:51:13.628Z,13.31
2016-09-25T03:52:13.642Z,13.31
2016-09-25T03:53:13.659Z,13.28
2016-09-25T03:54:13.674Z,13.3
2016-09-25T03:55:13.679Z,13.33
2016-09-25T03:56:13.717Z,13.28
2016-09-25T03:57:13.720Z,13.31
2016-09-25T03:58:13.750Z,13.25
2016-09-25T03:59:13.776Z,13.31
2016-09-25T04:01:13.822Z,13.3
2016-09-25T04:02:13.835Z,13.28
2016-09-25T04:03:13.857Z,13.27
2016-09-25T04:04:13.877Z,13.28
2016-09-25T04:05:13.893Z,13.27
2016-09-25T04:06:13.919Z,13.25
2016-09-25T04:07:13.924Z,13.33
2016-09-25T04:08:13.947Z,13.3
2016-09-25T04:09:13.977Z,13.22
2016-09-25T04:10:13.988Z,13.19
2016-09-25T04:11:14.002Z,13.35
2016-09-25T04:12:14.032Z,13.19
2016-09-25T04:13:14.048Z,13.31
2016-09-25T04:14:14.060Z,13.31
2016-09-25T04:15:14.081Z,13.31
2016-09-25T04:16:14.103Z,13.23
2016-09-25T04:17:14.121Z,13.27
2016-09-25T04:18:14.135Z,13.13
2016-09-25T04:19:14.156Z,13.2
2016-09-25T04:20:14.173Z,13.28
2016-09-25T04:21:14.207Z,13.27
2016-09-25T04:22:14.222Z,13.25
2016-09-25T04:23:14.226Z,13.3
2016-09-25T04:24:14.248Z,13.33
2016-09-25T04:25:14.270Z,13.28
2016-09-25T04:26:14.281Z,13.3
2016-09-25T04:27:14.302Z,13.3
2016-09-25T04:28:14.325Z,13.33
2016-09-25T04:29:14.351Z,13.33
2016-09-25T04:30:14.356Z,13.2
2016-09-25T04:31:14.384Z,13.3
2016-09-25T04:32:14.394Z,13.35
2016-09-25T04:33:14.418Z,13.23
2016-09-25T04:34:14.423Z,13.23
2016-09-25T04:35:14.449Z,13.23
2016-09-25T04:36:14.461Z,13.33
2016-09-25T04:37:14.494Z,13.31
2016-09-25T04:38:14.522Z,13.33
2016-09-25T04:39:14.531Z,13.27
2016-09-25T04:40:14.533Z,13.27
2016-09-25T04:41:14.557Z,13.16
2016-09-25T04:42:14.582Z,13.31
2016-09-25T04:43:14.594Z,13.23
2016-09-25T04:44:14.631Z,13.18
2016-09-25T04:45:14.617Z,13.37
2016-09-25T04:46:14.650Z,13.28
2016-09-25T04:47:14.679Z,13.31
2016-09-25T04:48:14.678Z,13.23
2016-09-25T04:49:14.710Z,13.2
2016-09-25T04:50:14.737Z,13.3
2016-09-25T04:51:14.743Z,13.16
2016-09-25T04:52:14.781Z,13.13
2016-09-25T04:53:14.792Z,13.19
2016-09-25T04:54:14.816Z,13.25
2016-09-25T04:55:14.810Z,13.19
2016-09-25T04:56:14.844Z,13.2
2016-09-25T04:57:14.857Z,13.15
2016-09-25T04:58:14.880Z,13.23
2016-09-25T04:59:14.903Z,13.19
2016-09-25T05:00:14.907Z,13.23
2016-09-25T05:01:14.941Z,13.25
2016-09-25T05:02:14.954Z,13.18
2016-09-25T05:03:14.953Z,13.18
2016-09-25T05:04:14.977Z,13.23
2016-09-25T05:05:14.991Z,13.28
2016-09-25T05:06:15.019Z,13.23
2016-09-25T05:07:15.044Z,13.31
2016-09-25T05:08:15.057Z,13.33
2016-09-25T05:09:15.081Z,13.28
2016-09-25T05:10:15.098Z,13.25
2016-09-25T05:11:15.158Z,13.3
2016-09-25T05:12:15.127Z,13.25
2016-09-25T05:13:15.147Z,13.37
2016-09-25T05:14:15.177Z,13.41
2016-09-25T05:15:15.197Z,13.31
2016-09-25T05:16:15.204Z,13.42
2016-09-25T05:17:15.231Z,13.3
2016-09-25T05:18:15.229Z,13.44
2016-09-25T05:19:15.251Z,13.41
2016-09-25T05:20:15.278Z,13.44
2016-09-25T05:21:15.305Z,13.39
2016-09-25T05:22:15.312Z,13.42
2016-09-25T05:23:15.324Z,13.37
2016-09-25T05:24:15.354Z,13.49
2016-09-25T05:25:15.364Z,13.37
2016-09-25T05:26:15.394Z,13.44
2016-09-25T05:27:15.396Z,13.38
2016-09-25T05:28:15.428Z,13.33
2016-09-25T05:29:15.442Z,13.46
2016-09-25T05:30:15.463Z,13.39
2016-09-25T05:31:15.495Z,13.41
2016-09-25T05:32:15.502Z,13.25
2016-09-25T05:33:15.519Z,13.42
2016-09-25T05:34:15.542Z,13.39
2016-09-25T05:35:15.560Z,13.28
2016-09-25T05:36:15.581Z,13.46
2016-09-25T05:37:15.601Z,13.28
2016-09-25T05:38:15.609Z,13.37
2016-09-25T05:39:15.626Z,13.5
2016-09-25T05:40:15.657Z,13.41
2016-09-25T05:41:15.665Z,13.44
2016-09-25T05:42:15.687Z,13.47
2016-09-25T05:43:15.704Z,13.59
2016-09-25T05:44:15.716Z,13.52
2016-09-25T05:45:15.746Z,13.6
2016-09-25T05:46:15.756Z,13.7
2016-09-25T05:47:15.780Z,13.68
2016-09-25T05:48:15.799Z,13.63
2016-09-25T05:49:15.815Z,13.65
2016-09-25T05:50:15.842Z,13.72
2016-09-25T05:51:15.845Z,13.72
2016-09-25T05:52:15.867Z,13.79
2016-09-25T05:53:15.889Z,13.79
2016-09-25T05:54:15.914Z,13.78
2016-09-25T05:55:15.927Z,13.83
2016-09-25T05:56:15.968Z,13.9
2016-09-25T05:57:15.966Z,13.96
2016-09-25T05:58:15.982Z,13.96
2016-09-25T05:59:16.005Z,13.99
2016-09-25T06:00:16.022Z,14.04
2016-09-25T06:01:16.032Z,14.07
2016-09-25T06:02:16.053Z,13.99
2016-09-25T06:03:16.086Z,14.05
2016-09-25T06:04:16.103Z,14.07
2016-09-25T06:05:16.116Z,14.07
2016-09-25T06:06:16.139Z,14.12
2016-09-25T06:07:16.142Z,14.1
2016-09-25T06:08:16.179Z,14.17
2016-09-25T06:09:16.195Z,14.18
2016-09-25T06:10:16.204Z,14.17
2016-09-25T06:11:16.223Z,14.2
2016-09-25T06:12:16.263Z,14.23
2016-09-25T06:13:16.256Z,14.22
2016-09-25T06:14:16.287Z,14.25
2016-09-25T06:15:16.305Z,14.29
2016-09-25T06:16:16.317Z,14.3
2016-09-25T06:17:16.341Z,14.41
2016-09-25T06:18:16.368Z,14.36
2016-09-25T06:19:16.367Z,14.48
2016-09-25T06:20:16.395Z,14.45
2016-09-25T06:21:16.408Z,14.37
2016-09-25T06:22:16.426Z,14.51
2016-09-25T06:23:16.457Z,14.47
2016-09-25T06:24:16.471Z,14.5
2016-09-25T06:25:16.484Z,14.59
2016-09-25T06:26:16.507Z,14.6
2016-09-25T06:27:16.527Z,14.68
2016-09-25T06:28:16.544Z,14.63
2016-09-25T06:29:16.564Z,14.77
2016-09-25T06:30:16.593Z,14.78
2016-09-25T06:31:16.591Z,14.78
2016-09-25T06:32:16.628Z,14.89
2016-09-25T06:33:16.643Z,14.85
2016-09-25T06:34:16.672Z,14.82
2016-09-25T06:35:16.680Z,14.92
2016-09-25T06:36:16.700Z,15.02
2016-09-25T06:37:16.707Z,15.04
2016-09-25T06:38:16.724Z,15.04
2016-09-25T06:39:16.745Z,15.19
2016-09-25T06:40:16.780Z,15.18
2016-09-25T06:41:16.791Z,15.19
2016-09-25T06:42:16.804Z,15.35
2016-09-25T06:43:16.824Z,15.24
2016-09-25T06:44:16.850Z,15.36
2016-09-25T06:45:16.880Z,15.4
2016-09-25T06:46:16.899Z,15.47
2016-09-25T06:47:16.913Z,15.55
2016-09-25T06:48:16.933Z,15.61
2016-09-25T06:49:16.951Z,15.57
2016-09-25T06:50:16.955Z,15.68
2016-09-25T06:51:16.988Z,15.67
2016-09-25T06:52:17.005Z,15.75
2016-09-25T06:53:17.030Z,15.79
2016-09-25T06:54:17.053Z,15.79
2016-09-25T06:55:17.077Z,15.76
2016-09-25T06:56:17.086Z,15.84
2016-09-25T06:57:17.108Z,15.92
2016-09-25T06:58:17.123Z,15.97
2016-09-25T06:59:17.124Z,15.97
2016-09-25T07:00:17.188Z,16.05
2016-09-25T07:01:17.225Z,16.23
2016-09-25T07:02:17.237Z,16.16
2016-09-25T07:03:17.267Z,16.15
2016-09-25T07:04:17.287Z,16.16
2016-09-25T07:05:17.309Z,16.31
2016-09-25T07:06:17.331Z,16.31
2016-09-25T07:07:17.331Z,16.39
2016-09-25T07:08:17.333Z,16.38
2016-09-25T07:09:17.345Z,16.38
2016-09-25T07:10:17.381Z,16.47
2016-09-25T07:11:17.429Z,16.6
2016-09-25T07:12:17.429Z,16.56
2016-09-25T07:13:17.453Z,16.65
2016-09-25T07:14:17.466Z,16.66
2016-09-25T07:15:17.498Z,16.6
2016-09-25T07:16:17.518Z,16.65
2016-09-25T07:17:17.529Z,16.64
2016-09-25T07:18:17.551Z,16.65
2016-09-25T07:19:17.551Z,16.71
2016-09-25T07:20:17.561Z,16.76
2016-09-25T07:21:17.567Z,16.78
2016-09-25T07:22:17.642Z,16.86
2016-09-25T07:23:17.654Z,16.9
2016-09-25T07:24:17.678Z,16.96
2016-09-25T07:25:17.706Z,17.05
2016-09-25T07:26:17.734Z,17.16
2016-09-25T07:27:17.755Z,17.14
2016-09-25T07:28:17.760Z,17.26
2016-09-25T07:29:17.766Z,17.3
2016-09-25T07:30:17.762Z,17.3
2016-09-25T07:31:17.784Z,17.34
2016-09-25T07:32:17.805Z,17.41
2016-09-25T07:33:17.835Z,17.46
2016-09-25T07:34:17.868Z,17.56
2016-09-25T07:35:17.867Z,17.64
2016-09-25T07:36:17.903Z,17.71
2016-09-25T07:37:17.909Z,17.74
2016-09-25T07:38:17.943Z,17.71
2016-09-25T07:39:17.961Z,17.79
2016-09-25T07:40:17.969Z,17.82
2016-09-25T07:41:17.993Z,17.89
2016-09-25T07:42:18.016Z,17.89
2016-09-25T07:43:18.044Z,17.94
2016-09-25T07:44:18.065Z,18
2016-09-25T07:45:18.074Z,18.08
2016-09-25T07:46:18.106Z,18.18
2016-09-25T07:47:18.129Z,18.18
2016-09-25T07:48:18.140Z,18.19
2016-09-25T07:49:18.157Z,18.19
2016-09-25T07:50:18.179Z,18.29
2016-09-25T07:51:18.203Z,18.34
2016-09-25T07:52:18.232Z,18.22
2016-09-25T07:53:18.249Z,18.38
2016-09-25T07:54:18.266Z,18.38
2016-09-25T07:55:18.290Z,18.4
2016-09-25T07:56:18.309Z,18.44
2016-09-25T07:57:18.334Z,18.52
2016-09-25T07:58:18.368Z,18.56
2016-09-25T07:59:18.369Z,18.6
2016-09-25T08:00:18.386Z,18.65
2016-09-25T08:01:18.410Z,18.71
2016-09-25T08:02:18.444Z,18.71
2016-09-25T08:03:18.467Z,18.78
2016-09-25T08:04:18.472Z,18.8
2016-09-25T08:05:18.499Z,18.75
2016-09-25T08:06:18.523Z,18.92
2016-09-25T08:07:18.534Z,18.86
2016-09-25T08:08:18.566Z,18.92
2016-09-25T08:09:18.590Z,18.89
2016-09-25T08:10:18.600Z,18.99
2016-09-25T08:11:18.615Z,18.99
2016-09-25T08:12:18.645Z,19.02
2016-09-25T08:13:18.664Z,19.02
2016-09-25T08:14:18.698Z,19.11
2016-09-25T08:15:18.715Z,19.16
2016-09-25T08:16:18.740Z,19.15
2016-09-25T08:17:18.748Z,19.11
2016-09-25T08:18:18.785Z,19.26
2016-09-25T08:19:18.800Z,19.29
2016-09-25T08:20:18.830Z,19.34
2016-09-25T08:21:18.840Z,19.3
2016-09-25T08:22:18.862Z,19.34
2016-09-25T08:23:18.878Z,19.45
2016-09-25T08:24:18.911Z,19.39
2016-09-25T08:25:18.925Z,19.51
2016-09-25T08:26:18.958Z,19.54
2016-09-25T08:27:18.975Z,19.55
2016-09-25T08:28:18.985Z,19.63
2016-09-25T08:29:19.004Z,19.69
2016-09-25T08:30:19.028Z,19.76
2016-09-25T08:31:19.064Z,19.71
2016-09-25T08:32:19.086Z,19.77
2016-09-25T08:33:19.104Z,19.91
2016-09-25T08:34:19.129Z,19.91
2016-09-25T08:35:19.138Z,19.88
2016-09-25T08:36:19.153Z,19.89
2016-09-25T08:37:19.193Z,20.07
2016-09-25T08:38:19.213Z,20.02
2016-09-25T08:39:19.230Z,20.02
2016-09-25T08:40:19.252Z,20.02
2016-09-25T08:41:19.280Z,20.03
2016-09-25T08:42:19.302Z,20
2016-09-25T08:43:19.325Z,20.1
2016-09-25T08:44:19.351Z,20.18
2016-09-25T08:45:19.361Z,20.11
2016-09-25T08:46:19.436Z,20.18
2016-09-25T08:47:19.441Z,20.18
2016-09-25T08:48:19.444Z,20.06
2016-09-25T08:49:19.487Z,20.19
2016-09-25T08:50:19.519Z,20.16
2016-09-25T08:51:19.542Z,20.18
2016-09-25T08:52:19.552Z,20.14
2016-09-25T08:53:19.579Z,20.16
2016-09-25T08:54:19.580Z,20.16
2016-09-25T08:55:19.592Z,20.24
2016-09-25T08:56:19.608Z,20.29
2016-09-25T08:57:19.682Z,20.36
2016-09-25T08:58:19.674Z,20.34
2016-09-25T08:59:19.706Z,20.44
2016-09-25T09:00:19.715Z,20.59
2016-09-25T09:01:19.759Z,20.51
2016-09-25T09:02:19.781Z,20.55
2016-09-25T09:03:19.815Z,20.6
2016-09-25T09:04:19.805Z,20.62
2016-09-25T09:05:19.818Z,20.69
2016-09-25T09:06:19.835Z,20.67
2016-09-25T09:07:19.859Z,20.72
2016-09-25T09:08:19.873Z,20.75
2016-09-25T09:09:19.885Z,20.81
2016-09-25T09:10:19.926Z,20.81
2016-09-25T09:11:19.947Z,20.87
2016-09-25T09:12:19.963Z,20.88
2016-09-25T09:13:20.004Z,20.92
2016-09-25T09:14:20.020Z,20.96
2016-09-25T09:15:20.022Z,21
2016-09-25T09:16:20.067Z,21
2016-09-25T09:17:20.089Z,20.95
2016-09-25T09:18:20.093Z,21.02
2016-09-25T09:19:20.113Z,20.92
2016-09-25T09:20:20.147Z,20.88
2016-09-25T09:21:20.166Z,20.99
2016-09-25T09:22:20.189Z,20.95
2016-09-25T09:23:20.212Z,21.05
2016-09-25T09:24:20.245Z,21.17
2016-09-25T09:25:20.260Z,21.15
2016-09-25T09:26:20.273Z,21.12
2016-09-25T09:27:20.302Z,21.14
2016-09-25T09:28:20.338Z,21.21
2016-09-25T09:29:20.364Z,21.32
2016-09-25T09:30:20.360Z,21.33
2016-09-25T09:31:20.400Z,21.42
2016-09-25T09:32:20.419Z,21.43
2016-09-25T09:33:20.439Z,21.46
2016-09-25T09:34:20.455Z,21.52
2016-09-25T09:35:20.480Z,21.43
2016-09-25T09:36:20.512Z,21.5
2016-09-25T09:37:20.530Z,21.46
2016-09-25T09:38:20.556Z,21.45
2016-09-25T09:39:20.571Z,21.51
2016-09-25T09:40:20.592Z,21.55
2016-09-25T09:41:20.617Z,21.57
2016-09-25T09:42:20.644Z,21.57
2016-09-25T09:43:20.667Z,21.64
2016-09-25T09:44:20.700Z,21.67
2016-09-25T09:45:20.699Z,21.75
2016-09-25T09:46:20.738Z,21.79
2016-09-25T09:47:20.760Z,21.83
2016-09-25T09:48:20.785Z,21.83
2016-09-25T09:49:20.800Z,21.93
2016-09-25T09:50:20.830Z,21.95
2016-09-25T09:51:20.852Z,21.96
2016-09-25T09:52:20.872Z,21.92
2016-09-25T09:53:20.907Z,21.96
2016-09-25T09:54:20.915Z,21.95
2016-09-25T09:55:20.948Z,21.93
2016-09-25T09:56:20.960Z,21.85
2016-09-25T09:57:20.990Z,21.82
2016-09-25T09:58:21.014Z,21.85
2016-09-25T09:59:21.027Z,21.83
2016-09-25T10:00:21.049Z,21.85
2016-09-25T10:01:21.080Z,21.89
2016-09-25T10:02:21.114Z,21.96
2016-09-25T10:03:21.132Z,21.93
2016-09-25T10:04:21.149Z,21.93
2016-09-25T10:05:21.176Z,21.95
2016-09-25T10:06:21.180Z,21.95
2016-09-25T10:07:21.207Z,21.98
2016-09-25T10:08:21.227Z,22.11
2016-09-25T10:09:21.258Z,22.13
2016-09-25T10:10:21.284Z,22.07
2016-09-25T10:11:21.311Z,22.15
2016-09-25T10:12:21.320Z,22.13
2016-09-25T10:13:21.347Z,22.2
2016-09-25T10:14:21.382Z,22.18
2016-09-25T10:15:21.400Z,22.3
2016-09-25T10:16:21.429Z,22.26
2016-09-25T10:17:21.455Z,22.3
2016-09-25T10:18:21.463Z,22.26
2016-09-25T10:19:21.506Z,22.26
2016-09-25T10:20:21.519Z,22.23
2016-09-25T10:21:21.552Z,22.28
2016-09-25T10:22:21.562Z,22.28
2016-09-25T10:23:21.589Z,22.32
2016-09-25T10:24:21.620Z,22.39
2016-09-25T10:25:21.658Z,22.3
2016-09-25T10:26:21.876Z,22.36
2016-09-25T10:27:21.673Z,22.36
2016-09-25T10:28:21.760Z,22.44
2016-09-25T10:29:21.777Z,22.32
2016-09-25T10:30:21.782Z,22.38
2016-09-25T10:31:22.047Z,22.43
2016-09-25T10:32:21.783Z,22.5
2016-09-25T10:33:36.670Z,22.44
2016-09-25T10:34:21.874Z,22.54
2016-09-25T10:35:21.909Z,22.59
2016-09-25T10:36:21.913Z,22.57
2016-09-25T10:37:21.963Z,22.62
2016-09-25T10:38:21.996Z,22.7
2016-09-25T10:39:21.998Z,22.84
2016-09-25T10:40:21.994Z,22.75
2016-09-25T10:41:22.007Z,22.81
2016-09-25T10:42:22.035Z,22.87
2016-09-25T10:43:22.285Z,22.76
2016-09-25T10:44:22.090Z,22.85
2016-09-25T10:45:22.142Z,22.85
2016-09-25T10:46:22.182Z,22.88
2016-09-25T10:47:22.195Z,22.85
2016-09-25T10:48:22.211Z,22.81
2016-09-25T10:49:22.198Z,22.83
2016-09-25T10:50:22.207Z,22.91
2016-09-25T10:51:22.247Z,22.85
2016-09-25T10:52:37.099Z,22.88
2016-09-25T10:53:22.291Z,22.87
2016-09-25T10:54:22.304Z,22.87
2016-09-25T10:55:22.323Z,22.94
2016-09-25T10:56:22.335Z,22.9
2016-09-25T10:57:22.378Z,22.9
2016-09-25T10:58:22.390Z,22.99
2016-09-25T10:59:22.431Z,23.06
2016-09-25T11:00:22.471Z,23.02
2016-09-25T11:01:22.465Z,23.02
2016-09-25T11:02:22.493Z,23.09
2016-09-25T11:03:22.514Z,23.23
2016-09-25T11:04:22.532Z,23.15
2016-09-25T11:05:22.574Z,23.18
2016-09-25T11:06:22.605Z,23.23
2016-09-25T11:07:22.609Z,23.27
2016-09-25T11:08:22.633Z,23.34
2016-09-25T11:09:22.674Z,23.44
2016-09-25T11:10:22.705Z,23.47
2016-09-25T11:11:22.714Z,23.51
2016-09-25T11:12:22.745Z,23.55
2016-09-25T11:13:22.755Z,23.68
2016-09-25T11:14:22.778Z,23.61
2016-09-25T11:15:22.809Z,23.65
2016-09-25T11:19:22.906Z,23.83
2016-09-25T11:24:23.032Z,23.93
2016-09-25T11:33:22.970Z,24.16
2016-09-25T11:34:23.254Z,24.11
2016-09-25T11:35:23.276Z,24.16
2016-09-25T11:36:23.307Z,24.26
2016-09-25T11:37:23.332Z,24.2
2016-09-25T11:38:23.346Z,24.16
2016-09-25T11:39:23.381Z,24.16
2016-09-25T11:40:23.408Z,24.26
2016-09-25T11:41:23.428Z,24.17
2016-09-25T11:42:23.441Z,24.24
2016-09-25T11:43:23.478Z,24.17
2016-09-25T11:44:23.498Z,24.18
2016-09-25T11:45:23.519Z,24.26
2016-09-25T11:46:23.531Z,24.29
2016-09-25T11:47:23.568Z,24.26
2016-09-25T11:48:23.588Z,24.29
2016-09-25T11:49:23.614Z,24.4
2016-09-25T11:50:23.634Z,24.38
2016-09-25T11:52:23.692Z,24.43
2016-09-25T11:53:23.712Z,24.43
2016-09-25T11:54:23.732Z,24.42
2016-09-25T11:55:23.768Z,24.5
2016-09-25T11:56:38.625Z,24.51
2016-09-25T11:57:23.802Z,24.53
2016-09-25T11:58:38.668Z,24.61
2016-09-25T11:59:23.855Z,24.65
2016-09-25T12:00:23.877Z,24.61
2016-09-25T12:01:23.909Z,24.76
2016-09-25T12:02:23.927Z,24.76
2016-09-25T12:03:23.944Z,24.77
2016-09-25T12:04:23.978Z,24.8
2016-09-25T12:05:24.003Z,24.88
2016-09-25T12:06:24.032Z,24.85
2016-09-25T12:07:24.052Z,24.89
2016-09-25T12:08:24.070Z,24.93
2016-09-25T12:09:24.109Z,25.01
2016-09-25T12:10:24.133Z,25.01
2016-09-25T12:11:24.136Z,25.07
2016-09-25T12:12:24.181Z,25.01
2016-09-25T12:13:24.205Z,25.03
2016-09-25T12:14:24.267Z,25.01
2016-09-25T12:15:24.268Z,24.85
2016-09-25T12:16:24.268Z,24.96
2016-09-25T12:17:24.297Z,24.93
2016-09-25T12:19:24.389Z,25.04
2016-09-25T12:20:24.392Z,25.01
2016-09-25T12:21:24.423Z,24.99
2016-09-25T12:22:24.420Z,25.01
2016-09-25T12:23:24.476Z,25.07
2016-09-25T12:24:24.464Z,25.06
2016-09-25T12:25:24.493Z,25.06
2016-09-25T12:26:24.508Z,25.07
2016-09-25T12:27:24.545Z,25.04
2016-09-25T12:28:24.570Z,25.14
2016-09-25T12:29:24.597Z,25.07
2016-09-25T12:30:24.602Z,25.06
2016-09-25T12:31:24.618Z,25.07
2016-09-25T12:32:24.666Z,25.1
2016-09-25T12:33:24.685Z,25.21
2016-09-25T12:34:24.719Z,25.32
2016-09-25T12:35:24.735Z,25.31
2016-09-25T12:36:24.766Z,25.38
2016-09-25T12:37:24.776Z,25.32
2016-09-25T12:38:24.815Z,25.32
2016-09-25T12:39:24.833Z,25.29
2016-09-25T12:40:24.852Z,25.28
2016-09-25T12:41:24.899Z,25.25
2016-09-25T12:42:24.910Z,25.38
2016-09-25T12:43:24.937Z,25.4
2016-09-25T12:44:24.969Z,25.43
2016-09-25T12:45:24.987Z,25.43
2016-09-25T12:46:25.006Z,25.47
2016-09-25T12:47:25.027Z,25.55
2016-09-25T12:48:25.056Z,25.51
2016-09-25T12:49:25.071Z,25.58
2016-09-25T12:50:25.101Z,25.65
2016-09-25T12:51:25.136Z,25.63
2016-09-25T12:52:25.163Z,25.59
2016-09-25T12:53:25.170Z,25.51
2016-09-25T12:54:25.218Z,25.58
2016-09-25T12:55:25.217Z,25.65
2016-09-25T12:56:25.252Z,25.63
2016-09-25T12:57:25.283Z,25.7
2016-09-25T12:58:25.294Z,25.65
2016-09-25T12:59:25.334Z,25.68
2016-09-25T13:00:25.335Z,25.68
2016-09-25T13:01:25.387Z,25.7
2016-09-25T13:02:25.399Z,25.72
2016-09-25T13:03:25.418Z,25.68
2016-09-25T13:04:25.436Z,25.7
2016-09-25T13:05:25.475Z,25.73
2016-09-25T13:06:25.495Z,25.75
2016-09-25T13:07:25.532Z,25.8
2016-09-25T13:08:25.540Z,25.8
2016-09-25T13:09:25.582Z,25.77
2016-09-25T13:10:25.598Z,25.73
2016-09-25T13:11:25.625Z,25.78
2016-09-25T13:12:25.651Z,25.83
2016-09-25T13:13:25.671Z,25.84
2016-09-25T13:14:25.697Z,25.84